sensor_id;sensor_type;location;lat;lon;timestamp;temperature;humidity
65462;DHT22;53236;43.666;18.444;2022-12-24T00:01:12;0.80;99.90
65462;DHT22;53236;43.666;18.444;2022-12-24T00:03:37;0.70;99.90
65462;DHT22;53236;43.666;18.444;2022-12-24T00:06:07;0.70;99.90
65462;DHT22;53236;43.666;18.444;2022-12-24T00:08:33;0.70;99.90
65462;DHT22;53236;43.666;18.444;2022-12-24T00:10:59;0.80;99.90
65462;DHT22;53236;43.666;18.444;2022-12-24T00:13:25;0.80;99.90
65462;DHT22;53236;43.666;18.444;2022-12-24T00:15:51;0.80;99.90
65462;DHT22;53236;43.666;18.444;2022-12-24T00:18:16;0.80;99.90
65462;DHT22;53236;43.666;18.444;2022-12-24T00:20:46;0.80;99.90
65462;DHT22;53236;43.666;18.444;2022-12-24T00:23:12;0.80;99.90
65462;DHT22;53236;43.666;18.444;2022-12-24T00:25:38;0.90;99.90
65462;DHT22;53236;43.666;18.444;2022-12-24T00:28:04;0.90;99.90
65462;DHT22;53236;43.666;18.444;2022-12-24T00:30:29;1.00;99.90
65462;DHT22;53236;43.666;18.444;2022-12-24T00:32:55;1.10;99.90
65462;DHT22;53236;43.666;18.444;2022-12-24T00:35:21;0.90;99.90
65462;DHT22;53236;43.666;18.444;2022-12-24T00:37:47;0.90;99.90
65462;DHT22;53236;43.666;18.444;2022-12-24T00:40:14;1.00;99.90
65462;DHT22;53236;43.666;18.444;2022-12-24T00:42:40;1.10;99.90
65462;DHT22;53236;43.666;18.444;2022-12-24T00:45:06;1.10;99.90
65462;DHT22;53236;43.666;18.444;2022-12-24T00:47:32;1.10;99.90
65462;DHT22;53236;43.666;18.444;2022-12-24T00:49:57;1.10;99.90
65462;DHT22;53236;43.666;18.444;2022-12-24T00:52:23;1.00;99.90
65462;DHT22;53236;43.666;18.444;2022-12-24T00:54:49;1.00;99.90
65462;DHT22;53236;43.666;18.444;2022-12-24T00:57:15;1.10;99.90
65462;DHT22;53236;43.666;18.444;2022-12-24T00:59:41;1.20;99.90
65462;DHT22;53236;43.666;18.444;2022-12-24T01:02:07;1.20;99.90
65462;DHT22;53236;43.666;18.444;2022-12-24T01:04:32;1.30;99.90
65462;DHT22;53236;43.666;18.444;2022-12-24T01:07:17;1.20;99.90
65462;DHT22;53236;43.666;18.444;2022-12-24T01:09:43;1.20;99.90
65462;DHT22;53236;43.666;18.444;2022-12-24T01:12:09;1.20;99.90
65462;DHT22;53236;43.666;18.444;2022-12-24T01:14:36;1.20;99.90
65462;DHT22;53236;43.666;18.444;2022-12-24T01:17:02;1.20;99.90
65462;DHT22;53236;43.666;18.444;2022-12-24T01:19:30;1.10;99.90
65462;DHT22;53236;43.666;18.444;2022-12-24T01:21:55;1.10;99.90
65462;DHT22;53236;43.666;18.444;2022-12-24T01:24:22;1.20;99.90
65462;DHT22;53236;43.666;18.444;2022-12-24T01:26:48;1.20;99.90
65462;DHT22;53236;43.666;18.444;2022-12-24T01:29:14;1.20;99.90
65462;DHT22;53236;43.666;18.444;2022-12-24T01:31:40;1.20;99.90
65462;DHT22;53236;43.666;18.444;2022-12-24T01:34:06;1.20;99.90
65462;DHT22;53236;43.666;18.444;2022-12-24T01:36:32;1.30;99.90
65462;DHT22;53236;43.666;18.444;2022-12-24T01:38:57;1.30;99.90
65462;DHT22;53236;43.666;18.444;2022-12-24T01:41:24;1.30;99.90
65462;DHT22;53236;43.666;18.444;2022-12-24T01:49:49;1.20;99.90
65462;DHT22;53236;43.666;18.444;2022-12-24T01:52:28;1.20;99.90
65462;DHT22;53236;43.666;18.444;2022-12-24T01:55:02;1.10;99.90
65462;DHT22;53236;43.666;18.444;2022-12-24T01:57:37;1.00;99.90
65462;DHT22;53236;43.666;18.444;2022-12-24T02:00:08;1.00;99.90
65462;DHT22;53236;43.666;18.444;2022-12-24T02:02:34;1.10;99.90
65462;DHT22;53236;43.666;18.444;2022-12-24T02:05:08;1.10;99.90
65462;DHT22;53236;43.666;18.444;2022-12-24T02:07:35;1.20;99.90
65462;DHT22;53236;43.666;18.444;2022-12-24T02:10:03;1.10;99.90
65462;DHT22;53236;43.666;18.444;2022-12-24T02:12:31;1.20;99.90
65462;DHT22;53236;43.666;18.444;2022-12-24T02:14:59;1.20;99.90
65462;DHT22;53236;43.666;18.444;2022-12-24T02:17:28;1.20;99.90
65462;DHT22;53236;43.666;18.444;2022-12-24T02:30:58;1.30;99.90
65462;DHT22;53236;43.666;18.444;2022-12-24T02:36:28;1.20;99.90
65462;DHT22;53236;43.666;18.444;2022-12-24T02:39:04;1.30;99.90
65462;DHT22;53236;43.666;18.444;2022-12-24T02:41:37;1.30;99.90
65462;DHT22;53236;43.666;18.444;2022-12-24T02:44:26;1.20;99.90
65462;DHT22;53236;43.666;18.444;2022-12-24T02:46:52;1.30;99.90
65462;DHT22;53236;43.666;18.444;2022-12-24T02:49:19;1.30;99.90
65462;DHT22;53236;43.666;18.444;2022-12-24T02:51:45;1.30;99.90
65462;DHT22;53236;43.666;18.444;2022-12-24T02:54:11;1.30;99.90
65462;DHT22;53236;43.666;18.444;2022-12-24T02:57:09;1.10;99.90
65462;DHT22;53236;43.666;18.444;2022-12-24T02:59:50;1.10;99.90
65462;DHT22;53236;43.666;18.444;2022-12-24T03:08:18;1.00;99.90
65462;DHT22;53236;43.666;18.444;2022-12-24T03:11:01;0.90;99.90
65462;DHT22;53236;43.666;18.444;2022-12-24T03:13:29;0.80;99.90
65462;DHT22;53236;43.666;18.444;2022-12-24T03:15:55;0.70;99.90
65462;DHT22;53236;43.666;18.444;2022-12-24T03:18:23;0.60;99.90
65462;DHT22;53236;43.666;18.444;2022-12-24T03:20:57;0.50;99.90
65462;DHT22;53236;43.666;18.444;2022-12-24T03:23:25;0.30;99.90
65462;DHT22;53236;43.666;18.444;2022-12-24T03:25:51;0.30;99.90
65462;DHT22;53236;43.666;18.444;2022-12-24T03:28:17;0.30;99.90
65462;DHT22;53236;43.666;18.444;2022-12-24T03:30:46;0.40;99.90
65462;DHT22;53236;43.666;18.444;2022-12-24T03:33:14;0.40;99.90
65462;DHT22;53236;43.666;18.444;2022-12-24T03:35:40;0.40;99.90
65462;DHT22;53236;43.666;18.444;2022-12-24T03:38:06;0.40;99.90
65462;DHT22;53236;43.666;18.444;2022-12-24T03:40:32;0.40;99.90
65462;DHT22;53236;43.666;18.444;2022-12-24T03:42:57;0.40;99.90
65462;DHT22;53236;43.666;18.444;2022-12-24T03:45:24;0.30;99.90
65462;DHT22;53236;43.666;18.444;2022-12-24T03:47:49;0.30;99.90
65462;DHT22;53236;43.666;18.444;2022-12-24T03:50:15;0.30;99.90
65462;DHT22;53236;43.666;18.444;2022-12-24T03:52:41;0.20;99.90
65462;DHT22;53236;43.666;18.444;2022-12-24T03:55:07;0.30;99.90
65462;DHT22;53236;43.666;18.444;2022-12-24T03:57:32;0.30;99.90
65462;DHT22;53236;43.666;18.444;2022-12-24T03:59:58;0.30;99.90
65462;DHT22;53236;43.666;18.444;2022-12-24T04:02:24;0.20;99.90
65462;DHT22;53236;43.666;18.444;2022-12-24T04:04:50;0.20;99.90
65462;DHT22;53236;43.666;18.444;2022-12-24T04:07:15;0.10;99.90
65462;DHT22;53236;43.666;18.444;2022-12-24T04:09:41;0.20;99.90
65462;DHT22;53236;43.666;18.444;2022-12-24T04:12:07;0.30;99.90
65462;DHT22;53236;43.666;18.444;2022-12-24T04:14:33;0.30;99.90
65462;DHT22;53236;43.666;18.444;2022-12-24T04:16:59;0.20;99.90
65462;DHT22;53236;43.666;18.444;2022-12-24T04:19:24;0.20;99.90
65462;DHT22;53236;43.666;18.444;2022-12-24T04:21:50;0.20;99.90
65462;DHT22;53236;43.666;18.444;2022-12-24T04:24:15;0.30;99.90
65462;DHT22;53236;43.666;18.444;2022-12-24T04:26:41;0.20;99.90
65462;DHT22;53236;43.666;18.444;2022-12-24T04:29:07;0.20;99.90
65462;DHT22;53236;43.666;18.444;2022-12-24T04:31:32;0.30;99.90
65462;DHT22;53236;43.666;18.444;2022-12-24T04:33:58;0.20;99.90
65462;DHT22;53236;43.666;18.444;2022-12-24T04:36:24;0.30;99.90
65462;DHT22;53236;43.666;18.444;2022-12-24T04:38:49;0.30;99.90
65462;DHT22;53236;43.666;18.444;2022-12-24T04:41:18;0.40;99.90
65462;DHT22;53236;43.666;18.444;2022-12-24T04:43:44;0.40;99.90
65462;DHT22;53236;43.666;18.444;2022-12-24T04:46:16;0.50;99.90
65462;DHT22;53236;43.666;18.444;2022-12-24T04:48:48;0.50;99.90
65462;DHT22;53236;43.666;18.444;2022-12-24T04:51:15;0.50;99.90
65462;DHT22;53236;43.666;18.444;2022-12-24T04:53:41;0.70;99.90
65462;DHT22;53236;43.666;18.444;2022-12-24T04:56:19;0.70;99.90
65462;DHT22;53236;43.666;18.444;2022-12-24T04:58:45;0.80;99.90
65462;DHT22;53236;43.666;18.444;2022-12-24T05:01:14;0.70;99.90
65462;DHT22;53236;43.666;18.444;2022-12-24T05:03:40;0.70;99.90
65462;DHT22;53236;43.666;18.444;2022-12-24T05:06:18;0.70;99.90
65462;DHT22;53236;43.666;18.444;2022-12-24T05:08:44;0.80;99.90
65462;DHT22;53236;43.666;18.444;2022-12-24T05:11:11;0.80;99.90
65462;DHT22;53236;43.666;18.444;2022-12-24T05:13:41;0.80;99.90
65462;DHT22;53236;43.666;18.444;2022-12-24T05:16:08;0.80;99.90
65462;DHT22;53236;43.666;18.444;2022-12-24T05:18:34;0.80;99.90
65462;DHT22;53236;43.666;18.444;2022-12-24T05:20:59;0.90;99.90
65462;DHT22;53236;43.666;18.444;2022-12-24T05:23:25;0.90;99.90
65462;DHT22;53236;43.666;18.444;2022-12-24T05:26:22;0.90;99.90
65462;DHT22;53236;43.666;18.444;2022-12-24T05:28:50;0.90;99.90
65462;DHT22;53236;43.666;18.444;2022-12-24T05:31:17;1.00;99.90
65462;DHT22;53236;43.666;18.444;2022-12-24T05:33:43;1.00;99.90
65462;DHT22;53236;43.666;18.444;2022-12-24T05:36:09;1.00;99.90
65462;DHT22;53236;43.666;18.444;2022-12-24T05:38:34;1.00;99.90
65462;DHT22;53236;43.666;18.444;2022-12-24T05:41:00;1.00;99.90
65462;DHT22;53236;43.666;18.444;2022-12-24T05:43:26;1.10;99.90
65462;DHT22;53236;43.666;18.444;2022-12-24T05:46:15;1.10;99.90
65462;DHT22;53236;43.666;18.444;2022-12-24T05:48:41;1.00;99.90
65462;DHT22;53236;43.666;18.444;2022-12-24T05:51:08;1.00;99.90
65462;DHT22;53236;43.666;18.444;2022-12-24T05:53:35;0.90;99.90
65462;DHT22;53236;43.666;18.444;2022-12-24T05:56:09;1.00;99.90
65462;DHT22;53236;43.666;18.444;2022-12-24T05:58:35;1.00;99.90
65462;DHT22;53236;43.666;18.444;2022-12-24T06:01:02;1.10;99.90
65462;DHT22;53236;43.666;18.444;2022-12-24T06:03:30;1.10;99.90
65462;DHT22;53236;43.666;18.444;2022-12-24T06:05:59;1.10;99.90
65462;DHT22;53236;43.666;18.444;2022-12-24T06:08:26;1.10;99.90
65462;DHT22;53236;43.666;18.444;2022-12-24T06:10:59;1.10;99.90
65462;DHT22;53236;43.666;18.444;2022-12-24T06:13:26;1.20;99.90
65462;DHT22;53236;43.666;18.444;2022-12-24T06:15:56;1.10;99.90
65462;DHT22;53236;43.666;18.444;2022-12-24T06:18:22;1.20;99.90
65462;DHT22;53236;43.666;18.444;2022-12-24T06:20:52;1.20;99.90
65462;DHT22;53236;43.666;18.444;2022-12-24T06:23:18;1.30;99.90
65462;DHT22;53236;43.666;18.444;2022-12-24T06:25:44;1.30;99.90
65462;DHT22;53236;43.666;18.444;2022-12-24T06:28:10;1.40;99.90
65462;DHT22;53236;43.666;18.444;2022-12-24T06:30:35;1.40;99.90
65462;DHT22;53236;43.666;18.444;2022-12-24T06:33:01;1.50;99.90
65462;DHT22;53236;43.666;18.444;2022-12-24T06:35:27;1.40;99.90
65462;DHT22;53236;43.666;18.444;2022-12-24T06:37:52;1.60;99.90
65462;DHT22;53236;43.666;18.444;2022-12-24T06:40:18;1.50;99.90
65462;DHT22;53236;43.666;18.444;2022-12-24T06:42:44;1.50;99.90
65462;DHT22;53236;43.666;18.444;2022-12-24T06:45:10;1.60;99.90
65462;DHT22;53236;43.666;18.444;2022-12-24T06:47:35;1.80;99.90
65462;DHT22;53236;43.666;18.444;2022-12-24T06:50:01;1.80;99.90
65462;DHT22;53236;43.666;18.444;2022-12-24T06:52:27;1.90;99.90
65462;DHT22;53236;43.666;18.444;2022-12-24T06:54:52;1.80;99.90
65462;DHT22;53236;43.666;18.444;2022-12-24T06:57:18;1.90;99.90
65462;DHT22;53236;43.666;18.444;2022-12-24T06:59:44;2.00;99.90
65462;DHT22;53236;43.666;18.444;2022-12-24T07:02:09;2.10;99.90
65462;DHT22;53236;43.666;18.444;2022-12-24T07:04:35;2.20;99.90
65462;DHT22;53236;43.666;18.444;2022-12-24T07:07:01;2.20;99.90
65462;DHT22;53236;43.666;18.444;2022-12-24T07:09:26;2.30;99.90
65462;DHT22;53236;43.666;18.444;2022-12-24T07:11:52;2.40;99.90
65462;DHT22;53236;43.666;18.444;2022-12-24T07:14:18;2.50;99.90
65462;DHT22;53236;43.666;18.444;2022-12-24T07:16:43;2.60;99.90
65462;DHT22;53236;43.666;18.444;2022-12-24T07:19:09;2.60;99.90
65462;DHT22;53236;43.666;18.444;2022-12-24T07:21:35;2.80;99.90
65462;DHT22;53236;43.666;18.444;2022-12-24T07:24:00;3.10;99.90
65462;DHT22;53236;43.666;18.444;2022-12-24T07:26:26;3.30;99.90
65462;DHT22;53236;43.666;18.444;2022-12-24T07:28:52;3.20;99.90
65462;DHT22;53236;43.666;18.444;2022-12-24T07:31:18;3.40;99.90
65462;DHT22;53236;43.666;18.444;2022-12-24T07:33:44;3.70;99.90
65462;DHT22;53236;43.666;18.444;2022-12-24T07:36:15;4.00;99.90
65462;DHT22;53236;43.666;18.444;2022-12-24T07:38:42;4.30;99.90
65462;DHT22;53236;43.666;18.444;2022-12-24T07:41:08;4.60;99.90
65462;DHT22;53236;43.666;18.444;2022-12-24T07:43:33;4.80;99.90
65462;DHT22;53236;43.666;18.444;2022-12-24T07:45:59;4.90;99.90
65462;DHT22;53236;43.666;18.444;2022-12-24T07:48:26;4.90;99.90
65462;DHT22;53236;43.666;18.444;2022-12-24T07:50:52;4.90;99.90
65462;DHT22;53236;43.666;18.444;2022-12-24T07:53:19;5.30;99.90
65462;DHT22;53236;43.666;18.444;2022-12-24T07:55:44;5.10;99.90
65462;DHT22;53236;43.666;18.444;2022-12-24T07:58:10;5.10;99.90
65462;DHT22;53236;43.666;18.444;2022-12-24T08:00:36;5.00;99.90
65462;DHT22;53236;43.666;18.444;2022-12-24T08:03:03;5.20;99.90
65462;DHT22;53236;43.666;18.444;2022-12-24T08:05:33;5.40;99.90
65462;DHT22;53236;43.666;18.444;2022-12-24T08:07:59;5.00;99.90
65462;DHT22;53236;43.666;18.444;2022-12-24T08:10:25;4.90;99.90
65462;DHT22;53236;43.666;18.444;2022-12-24T08:12:50;5.20;99.90
65462;DHT22;53236;43.666;18.444;2022-12-24T08:15:16;5.10;99.90
65462;DHT22;53236;43.666;18.444;2022-12-24T08:17:42;4.70;99.90
65462;DHT22;53236;43.666;18.444;2022-12-24T08:20:08;5.00;99.90
65462;DHT22;53236;43.666;18.444;2022-12-24T08:22:34;5.10;99.90
65462;DHT22;53236;43.666;18.444;2022-12-24T08:25:00;5.20;99.90
65462;DHT22;53236;43.666;18.444;2022-12-24T08:27:26;5.40;99.90
65462;DHT22;53236;43.666;18.444;2022-12-24T08:29:51;5.70;99.90
65462;DHT22;53236;43.666;18.444;2022-12-24T08:32:17;5.90;99.90
65462;DHT22;53236;43.666;18.444;2022-12-24T08:34:43;5.90;99.90
65462;DHT22;53236;43.666;18.444;2022-12-24T08:37:08;6.20;99.90
65462;DHT22;53236;43.666;18.444;2022-12-24T08:39:34;6.20;99.90
65462;DHT22;53236;43.666;18.444;2022-12-24T08:42:00;6.20;99.90
65462;DHT22;53236;43.666;18.444;2022-12-24T08:44:26;5.90;99.90
65462;DHT22;53236;43.666;18.444;2022-12-24T08:46:51;5.90;99.90
65462;DHT22;53236;43.666;18.444;2022-12-24T08:49:17;5.90;99.90
65462;DHT22;53236;43.666;18.444;2022-12-24T08:51:43;6.10;99.90
65462;DHT22;53236;43.666;18.444;2022-12-24T08:54:08;6.10;99.90
65462;DHT22;53236;43.666;18.444;2022-12-24T08:56:34;6.30;99.90
65462;DHT22;53236;43.666;18.444;2022-12-24T08:59:00;6.60;99.90
65462;DHT22;53236;43.666;18.444;2022-12-24T09:01:26;6.80;99.90
65462;DHT22;53236;43.666;18.444;2022-12-24T09:03:51;6.90;99.90
65462;DHT22;53236;43.666;18.444;2022-12-24T09:06:17;6.90;99.90
65462;DHT22;53236;43.666;18.444;2022-12-24T09:08:43;7.00;99.90
65462;DHT22;53236;43.666;18.444;2022-12-24T09:11:15;7.00;99.90
65462;DHT22;53236;43.666;18.444;2022-12-24T09:13:41;7.10;99.90
65462;DHT22;53236;43.666;18.444;2022-12-24T09:16:07;7.10;99.90
65462;DHT22;53236;43.666;18.444;2022-12-24T09:18:33;6.90;99.90
65462;DHT22;53236;43.666;18.444;2022-12-24T09:21:05;7.00;99.90
65462;DHT22;53236;43.666;18.444;2022-12-24T09:23:31;7.20;99.90
65462;DHT22;53236;43.666;18.444;2022-12-24T09:25:58;7.20;99.90
65462;DHT22;53236;43.666;18.444;2022-12-24T09:28:24;7.30;99.90
65462;DHT22;53236;43.666;18.444;2022-12-24T09:30:57;7.30;99.90
65462;DHT22;53236;43.666;18.444;2022-12-24T09:33:23;7.60;99.90
65462;DHT22;53236;43.666;18.444;2022-12-24T09:35:51;7.20;99.90
65462;DHT22;53236;43.666;18.444;2022-12-24T09:38:17;7.10;99.90
65462;DHT22;53236;43.666;18.444;2022-12-24T09:40:43;7.20;99.90
65462;DHT22;53236;43.666;18.444;2022-12-24T09:43:20;7.30;99.90
65462;DHT22;53236;43.666;18.444;2022-12-24T09:48:36;7.60;99.90
65462;DHT22;53236;43.666;18.444;2022-12-24T09:53:47;7.90;99.90
65462;DHT22;53236;43.666;18.444;2022-12-24T09:56:29;7.90;99.90
65462;DHT22;53236;43.666;18.444;2022-12-24T09:59:03;7.90;99.90
65462;DHT22;53236;43.666;18.444;2022-12-24T10:01:31;8.00;99.90
65462;DHT22;53236;43.666;18.444;2022-12-24T10:04:02;8.10;99.90
65462;DHT22;53236;43.666;18.444;2022-12-24T10:06:36;8.20;99.90
65462;DHT22;53236;43.666;18.444;2022-12-24T10:12:05;8.20;99.90
65462;DHT22;53236;43.666;18.444;2022-12-24T10:20:29;8.30;99.90
65462;DHT22;53236;43.666;18.444;2022-12-24T10:26:06;8.50;99.90
65462;DHT22;53236;43.666;18.444;2022-12-24T10:28:49;8.10;99.90
65462;DHT22;53236;43.666;18.444;2022-12-24T10:31:19;7.80;99.90
65462;DHT22;53236;43.666;18.444;2022-12-24T10:33:53;7.70;99.90
65462;DHT22;53236;43.666;18.444;2022-12-24T10:36:24;7.90;99.90
65462;DHT22;53236;43.666;18.444;2022-12-24T10:38:51;8.20;99.90
65462;DHT22;53236;43.666;18.444;2022-12-24T10:41:21;8.30;99.90
65462;DHT22;53236;43.666;18.444;2022-12-24T10:43:48;8.40;99.90
65462;DHT22;53236;43.666;18.444;2022-12-24T10:46:21;8.50;99.90
65462;DHT22;53236;43.666;18.444;2022-12-24T10:49:32;8.60;99.90
65462;DHT22;53236;43.666;18.444;2022-12-24T10:52:06;8.60;99.90
65462;DHT22;53236;43.666;18.444;2022-12-24T10:54:35;8.50;99.90
65462;DHT22;53236;43.666;18.444;2022-12-24T10:57:05;8.50;99.90
65462;DHT22;53236;43.666;18.444;2022-12-24T10:59:53;8.70;99.90
65462;DHT22;53236;43.666;18.444;2022-12-24T11:04:56;8.90;99.90
65462;DHT22;53236;43.666;18.444;2022-12-24T11:07:24;8.90;99.90
65462;DHT22;53236;43.666;18.444;2022-12-24T11:10:04;8.90;99.90
65462;DHT22;53236;43.666;18.444;2022-12-24T11:12:39;8.70;99.90
65462;DHT22;53236;43.666;18.444;2022-12-24T11:15:19;8.80;99.90
65462;DHT22;53236;43.666;18.444;2022-12-24T11:18:02;8.90;99.90
65462;DHT22;53236;43.666;18.444;2022-12-24T11:20:31;9.10;99.90
65462;DHT22;53236;43.666;18.444;2022-12-24T11:22:57;9.20;99.90
65462;DHT22;53236;43.666;18.444;2022-12-24T11:25:28;9.30;99.90
65462;DHT22;53236;43.666;18.444;2022-12-24T11:27:57;9.30;99.90
65462;DHT22;53236;43.666;18.444;2022-12-24T11:30:34;9.40;99.90
65462;DHT22;53236;43.666;18.444;2022-12-24T11:35:28;9.70;99.90
65462;DHT22;53236;43.666;18.444;2022-12-24T11:40:42;9.90;99.90
65462;DHT22;53236;43.666;18.444;2022-12-24T11:43:33;9.90;99.90
65462;DHT22;53236;43.666;18.444;2022-12-24T11:46:15;9.90;99.90
65462;DHT22;53236;43.666;18.444;2022-12-24T11:48:41;9.90;99.90
65462;DHT22;53236;43.666;18.444;2022-12-24T11:51:22;10.00;99.90
65462;DHT22;53236;43.666;18.444;2022-12-24T11:54:16;9.90;99.90
65462;DHT22;53236;43.666;18.444;2022-12-24T11:56:47;10.00;99.90
65462;DHT22;53236;43.666;18.444;2022-12-24T11:59:39;10.10;99.90
65462;DHT22;53236;43.666;18.444;2022-12-24T12:04:42;10.00;99.90
65462;DHT22;53236;43.666;18.444;2022-12-24T12:07:35;10.00;99.90
65462;DHT22;53236;43.666;18.444;2022-12-24T12:10:17;9.80;99.90
65462;DHT22;53236;43.666;18.444;2022-12-24T12:12:59;10.00;99.90
65462;DHT22;53236;43.666;18.444;2022-12-24T12:18:37;10.10;99.90
65462;DHT22;53236;43.666;18.444;2022-12-24T12:21:31;10.10;99.90
65462;DHT22;53236;43.666;18.444;2022-12-24T12:24:41;9.80;99.90
65462;DHT22;53236;43.666;18.444;2022-12-24T12:27:01;9.90;99.90
65462;DHT22;53236;43.666;18.444;2022-12-24T12:29:34;9.90;99.90
65462;DHT22;53236;43.666;18.444;2022-12-24T12:32:06;10.10;99.90
65462;DHT22;53236;43.666;18.444;2022-12-24T12:35:23;10.20;99.90
65462;DHT22;53236;43.666;18.444;2022-12-24T12:38:08;10.10;99.90
65462;DHT22;53236;43.666;18.444;2022-12-24T12:46:28;9.90;99.90
65462;DHT22;53236;43.666;18.444;2022-12-24T12:52:04;9.90;99.90
65462;DHT22;53236;43.666;18.444;2022-12-24T12:57:25;10.00;99.90
65462;DHT22;53236;43.666;18.444;2022-12-24T12:59:58;10.10;99.90
65462;DHT22;53236;43.666;18.444;2022-12-24T13:14:06;10.40;99.90
65462;DHT22;53236;43.666;18.444;2022-12-24T13:22:14;10.30;99.90
65462;DHT22;53236;43.666;18.444;2022-12-24T13:24:50;10.50;99.90
65462;DHT22;53236;43.666;18.444;2022-12-24T13:29:56;10.00;99.90
65462;DHT22;53236;43.666;18.444;2022-12-24T13:37:24;10.30;99.90
65462;DHT22;53236;43.666;18.444;2022-12-24T13:45:42;10.30;99.90
65462;DHT22;53236;43.666;18.444;2022-12-24T13:50:48;10.40;99.90
65462;DHT22;53236;43.666;18.444;2022-12-24T13:53:34;10.40;99.90
65462;DHT22;53236;43.666;18.444;2022-12-24T13:58:33;10.40;99.90
65462;DHT22;53236;43.666;18.444;2022-12-24T14:01:00;10.40;99.90
65462;DHT22;53236;43.666;18.444;2022-12-24T14:06:22;10.40;99.90
65462;DHT22;53236;43.666;18.444;2022-12-24T14:08:51;10.50;99.90
65462;DHT22;53236;43.666;18.444;2022-12-24T14:11:28;10.50;99.90
65462;DHT22;53236;43.666;18.444;2022-12-24T14:14:08;10.60;99.90
65462;DHT22;53236;43.666;18.444;2022-12-24T14:16:45;10.50;99.90
65462;DHT22;53236;43.666;18.444;2022-12-24T14:19:22;10.30;99.90
65462;DHT22;53236;43.666;18.444;2022-12-24T14:22:02;10.30;99.90
65462;DHT22;53236;43.666;18.444;2022-12-24T14:24:41;10.30;99.90
65462;DHT22;53236;43.666;18.444;2022-12-24T14:29:47;10.30;99.90
65462;DHT22;53236;43.666;18.444;2022-12-24T14:32:15;10.30;99.90
65462;DHT22;53236;43.666;18.444;2022-12-24T14:34:42;10.20;99.90
65462;DHT22;53236;43.666;18.444;2022-12-24T14:37:10;10.30;99.90
65462;DHT22;53236;43.666;18.444;2022-12-24T14:39:41;10.30;99.90
65462;DHT22;53236;43.666;18.444;2022-12-24T14:42:16;10.40;99.90
65462;DHT22;53236;43.666;18.444;2022-12-24T14:44:58;10.50;99.90
65462;DHT22;53236;43.666;18.444;2022-12-24T14:50:44;10.70;99.90
65462;DHT22;53236;43.666;18.444;2022-12-24T14:56:16;10.60;99.90
65462;DHT22;53236;43.666;18.444;2022-12-24T14:58:43;10.50;99.90
65462;DHT22;53236;43.666;18.444;2022-12-24T15:01:26;10.30;99.90
65462;DHT22;53236;43.666;18.444;2022-12-24T15:04:03;10.40;99.90
65462;DHT22;53236;43.666;18.444;2022-12-24T15:06:42;10.40;99.90
65462;DHT22;53236;43.666;18.444;2022-12-24T15:09:19;10.30;99.90
65462;DHT22;53236;43.666;18.444;2022-12-24T15:11:48;10.20;99.90
65462;DHT22;53236;43.666;18.444;2022-12-24T15:14:15;10.20;99.90
65462;DHT22;53236;43.666;18.444;2022-12-24T15:16:47;10.20;99.90
65462;DHT22;53236;43.666;18.444;2022-12-24T15:19:26;10.20;99.90
65462;DHT22;53236;43.666;18.444;2022-12-24T15:21:54;10.00;99.90
65462;DHT22;53236;43.666;18.444;2022-12-24T15:24:28;9.90;99.90
65462;DHT22;53236;43.666;18.444;2022-12-24T15:26:57;9.90;99.90
65462;DHT22;53236;43.666;18.444;2022-12-24T15:29:26;10.00;99.90
65462;DHT22;53236;43.666;18.444;2022-12-24T15:31:58;10.00;99.90
65462;DHT22;53236;43.666;18.444;2022-12-24T15:34:27;10.10;99.90
65462;DHT22;53236;43.666;18.444;2022-12-24T15:37:01;10.20;99.90
65462;DHT22;53236;43.666;18.444;2022-12-24T15:39:27;10.10;99.90
65462;DHT22;53236;43.666;18.444;2022-12-24T15:41:53;10.00;99.90
65462;DHT22;53236;43.666;18.444;2022-12-24T15:45:24;10.00;99.90
65462;DHT22;53236;43.666;18.444;2022-12-24T15:47:29;9.90;99.90
65462;DHT22;53236;43.666;18.444;2022-12-24T15:50:03;9.90;99.90
65462;DHT22;53236;43.666;18.444;2022-12-24T15:52:30;9.90;99.90
65462;DHT22;53236;43.666;18.444;2022-12-24T15:54:56;10.00;99.90
65462;DHT22;53236;43.666;18.444;2022-12-24T15:57:29;10.10;99.90
65462;DHT22;53236;43.666;18.444;2022-12-24T15:59:58;10.10;99.90
65462;DHT22;53236;43.666;18.444;2022-12-24T16:04:52;10.10;99.90
65462;DHT22;53236;43.666;18.444;2022-12-24T16:07:25;9.90;99.90
65462;DHT22;53236;43.666;18.444;2022-12-24T16:10:23;9.60;99.90
65462;DHT22;53236;43.666;18.444;2022-12-24T16:12:49;9.80;99.90
65462;DHT22;53236;43.666;18.444;2022-12-24T16:15:14;9.80;99.90
65462;DHT22;53236;43.666;18.444;2022-12-24T16:17:40;9.80;99.90
65462;DHT22;53236;43.666;18.444;2022-12-24T16:20:19;9.80;99.90
65462;DHT22;53236;43.666;18.444;2022-12-24T16:22:46;9.70;99.90
65462;DHT22;53236;43.666;18.444;2022-12-24T16:25:24;9.80;99.90
65462;DHT22;53236;43.666;18.444;2022-12-24T16:27:51;9.70;99.90
65462;DHT22;53236;43.666;18.444;2022-12-24T16:30:19;9.60;99.90
65462;DHT22;53236;43.666;18.444;2022-12-24T16:32:46;9.70;99.90
65462;DHT22;53236;43.666;18.444;2022-12-24T16:35:25;9.80;99.90
65462;DHT22;53236;43.666;18.444;2022-12-24T16:37:52;9.80;99.90
65462;DHT22;53236;43.666;18.444;2022-12-24T16:40:18;9.90;99.90
65462;DHT22;53236;43.666;18.444;2022-12-24T16:42:43;9.90;99.90
65462;DHT22;53236;43.666;18.444;2022-12-24T16:45:28;9.90;99.90
65462;DHT22;53236;43.666;18.444;2022-12-24T16:47:59;10.00;99.90
65462;DHT22;53236;43.666;18.444;2022-12-24T16:50:25;9.90;99.90
65462;DHT22;53236;43.666;18.444;2022-12-24T16:52:51;9.90;99.90
65462;DHT22;53236;43.666;18.444;2022-12-24T16:55:17;10.00;99.90
65462;DHT22;53236;43.666;18.444;2022-12-24T16:57:43;10.10;99.90
65462;DHT22;53236;43.666;18.444;2022-12-24T17:00:17;10.00;99.90
65462;DHT22;53236;43.666;18.444;2022-12-24T17:02:44;10.00;99.90
65462;DHT22;53236;43.666;18.444;2022-12-24T17:05:10;10.00;99.90
65462;DHT22;53236;43.666;18.444;2022-12-24T17:07:36;10.10;99.90
65462;DHT22;53236;43.666;18.444;2022-12-24T17:10:02;9.90;99.90
65462;DHT22;53236;43.666;18.444;2022-12-24T17:12:28;9.80;99.90
65462;DHT22;53236;43.666;18.444;2022-12-24T17:14:54;9.70;99.90
65462;DHT22;53236;43.666;18.444;2022-12-24T17:17:24;9.70;99.90
65462;DHT22;53236;43.666;18.444;2022-12-24T17:19:51;9.60;99.90
65462;DHT22;53236;43.666;18.444;2022-12-24T17:22:16;9.70;99.90
65462;DHT22;53236;43.666;18.444;2022-12-24T17:24:42;9.60;99.90
65462;DHT22;53236;43.666;18.444;2022-12-24T17:27:08;9.60;99.90
65462;DHT22;53236;43.666;18.444;2022-12-24T17:29:33;9.60;99.90
65462;DHT22;53236;43.666;18.444;2022-12-24T17:31:59;9.50;99.90
65462;DHT22;53236;43.666;18.444;2022-12-24T17:34:25;9.50;99.90
65462;DHT22;53236;43.666;18.444;2022-12-24T17:36:51;9.40;99.90
65462;DHT22;53236;43.666;18.444;2022-12-24T17:39:16;9.40;99.90
65462;DHT22;53236;43.666;18.444;2022-12-24T17:41:42;9.30;99.90